Time;durP1;ratioP1;P1;durP2;ratioP2;P2;SDS_P1;SDS_P2;PMS_P1;PMS_P2;Temp;Humidity;BMP_temperature;BMP_pressure;BME280_temperature;BME280_humidity;BME280_pressure;Samples;Min_cycle;Max_cycle;Signal;HPM_P1;HPM_P2
2024/03/03 00:00:39;;;;;;;42.63;27.30;;;;;;;-146.29;100.00;59205.81;5028496;28;20854;-70
2024/03/03 00:03:05;;;;;;;44.87;27.57;;;;;;;-146.29;100.00;59205.81;5035695;28;20211;-72
2024/03/03 00:05:30;;;;;;;42.07;26.80;;;;;;;-146.29;100.00;59205.81;5018491;28;20171;-72
2024/03/03 00:07:55;;;;;;;38.57;24.77;;;;;;;-146.29;100.00;59205.81;5038826;28;20241;-72
2024/03/03 00:10:21;;;;;;;56.10;31.43;;;;;;;-146.29;100.00;59205.81;5035887;28;20345;-72
2024/03/03 00:12:47;;;;;;;41.60;26.37;;;;;;;-146.29;100.00;59205.81;5034124;28;20184;-71
2024/03/03 00:15:12;;;;;;;39.20;25.00;;;;;;;-146.29;100.00;59205.81;5038359;28;20188;-71
2024/03/03 00:17:38;;;;;;;48.73;29.40;;;;;;;-146.29;100.00;59205.81;5045652;28;20180;-73
2024/03/03 00:20:04;;;;;;;41.60;26.37;;;;;;;-146.29;100.00;59205.81;5035794;28;20214;-71
2024/03/03 00:22:33;;;;;;;38.10;23.53;;;;;;;-146.29;100.00;59205.81;5029212;28;20347;-71
2024/03/03 00:24:58;;;;;;;39.47;24.90;;;;;;;-146.29;100.00;59205.81;5029070;28;20429;-72
2024/03/03 00:27:25;;;;;;;40.57;26.03;;;;;;;-146.29;100.00;59205.81;5033531;28;20413;-71
2024/03/03 00:29:51;;;;;;;41.17;25.03;;;;;;;-146.29;100.00;59205.81;5033343;28;20249;-69
2024/03/03 00:32:17;;;;;;;37.40;24.67;;;;;;;-146.29;100.00;59205.81;5028728;28;20501;-68
2024/03/03 00:34:43;;;;;;;37.70;24.20;;;;;;;-146.29;100.00;59205.81;5036004;28;20529;-71
2024/03/03 00:37:10;;;;;;;44.30;26.30;;;;;;;-146.29;100.00;59205.81;5029911;28;20188;-69
2024/03/03 00:39:37;;;;;;;40.60;24.93;;;;;;;-146.29;100.00;59205.81;5035039;28;20262;-69
2024/03/03 00:42:04;;;;;;;48.13;27.20;;;;;;;-146.29;100.00;59205.81;5030675;28;20458;-70
2024/03/03 00:44:29;;;;;;;42.00;26.47;;;;;;;-146.29;100.00;59205.81;5030066;28;20505;-71
2024/03/03 00:46:54;;;;;;;41.40;27.90;;;;;;;-146.29;100.00;59205.81;5031140;28;20510;-71
2024/03/03 00:49:20;;;;;;;50.30;30.20;;;;;;;-146.29;100.00;59205.81;5037345;28;20551;-70
2024/03/03 00:51:45;;;;;;;39.67;25.00;;;;;;;-146.29;100.00;59205.81;5037193;28;20204;-72
2024/03/03 00:54:11;;;;;;;52.50;27.07;;;;;;;-146.29;100.00;59205.81;5030501;28;20188;-69
2024/03/03 00:56:37;;;;;;;41.17;26.23;;;;;;;-146.29;100.00;59205.81;5036965;28;20179;-72
2024/03/03 00:59:02;;;;;;;38.27;24.43;;;;;;;-146.29;100.00;59205.81;5030993;28;20187;-72
2024/03/03 01:01:27;;;;;;;40.80;24.60;;;;;;;-146.29;100.00;59205.81;5028637;28;20235;-72
2024/03/03 01:03:53;;;;;;;36.97;24.20;;;;;;;-146.29;100.00;59205.81;5029278;28;20221;-70
2024/03/03 01:06:18;;;;;;;43.83;26.53;;;;;;;-146.29;100.00;59205.81;5028251;28;20274;-72
2024/03/03 01:08:44;;;;;;;45.83;24.47;;;;;;;-146.29;100.00;59205.81;5028995;28;20184;-72
2024/03/03 01:11:10;;;;;;;37.27;23.60;;;;;;;-146.29;100.00;59205.81;5026235;28;20436;-69
2024/03/03 01:13:35;;;;;;;39.63;24.90;;;;;;;-146.29;100.00;59205.81;5029525;28;20195;-69
2024/03/03 01:16:00;;;;;;;42.93;25.13;;;;;;;-146.29;100.00;59205.81;5028447;28;20183;-74
2024/03/03 01:18:26;;;;;;;40.80;24.60;;;;;;;-146.29;100.00;59205.81;5028547;28;20183;-72
2024/03/03 01:20:51;;;;;;;39.80;24.67;;;;;;;-146.29;100.00;59205.81;5032749;28;20239;-72
2024/03/03 01:23:18;;;;;;;33.20;22.77;;;;;;;-146.29;100.00;59205.81;5031926;28;20253;-74
2024/03/03 01:25:43;;;;;;;39.37;23.60;;;;;;;-146.29;100.00;59205.81;5028143;28;20218;-71
2024/03/03 01:28:09;;;;;;;36.70;25.00;;;;;;;-146.29;100.00;59205.81;5027518;28;20815;-71
2024/03/03 01:30:35;;;;;;;38.57;23.27;;;;;;;-146.29;100.00;59205.81;5026332;28;20444;-71
2024/03/03 01:33:00;;;;;;;37.03;22.70;;;;;;;-146.29;100.00;59205.81;5031736;28;20179;-69
2024/03/03 01:35:26;;;;;;;43.10;26.07;;;;;;;-146.29;100.00;59205.81;5036404;28;20862;-71
2024/03/03 01:37:51;;;;;;;41.77;24.37;;;;;;;-146.29;100.00;59205.81;5030992;28;20729;-70
2024/03/03 01:40:17;;;;;;;36.47;24.07;;;;;;;-146.29;100.00;59205.81;5028326;28;20672;-72
2024/03/03 01:42:42;;;;;;;41.47;25.13;;;;;;;-146.29;100.00;59205.81;5033491;28;20622;-69
2024/03/03 01:45:18;;;;;;;40.10;25.80;;;;;;;-146.29;100.00;59205.81;5028362;28;20197;-70
2024/03/03 01:47:44;;;;;;;39.67;26.60;;;;;;;-146.29;100.00;59205.81;5027961;28;20237;-69
2024/03/03 01:50:09;;;;;;;41.37;25.37;;;;;;;-146.29;100.00;59205.81;5027532;28;20537;-71
2024/03/03 01:52:36;;;;;;;37.07;24.30;;;;;;;-146.29;100.00;59205.81;5025737;28;20414;-70
2024/03/03 01:55:02;;;;;;;38.57;25.17;;;;;;;-146.29;100.00;59205.81;5041549;28;20190;-71
2024/03/03 01:57:27;;;;;;;48.03;25.13;;;;;;;-146.29;100.00;59205.81;5025652;28;20423;-69
2024/03/03 01:59:54;;;;;;;41.27;25.60;;;;;;;-146.29;100.00;59205.81;5033092;28;20672;-71
2024/03/03 02:02:19;;;;;;;42.70;25.10;;;;;;;-146.29;100.00;59205.81;5035588;28;20206;-71
2024/03/03 02:04:45;;;;;;;40.43;24.20;;;;;;;-146.29;100.00;59205.81;5027787;28;20419;-72
2024/03/03 02:07:10;;;;;;;42.63;23.73;;;;;;;-146.29;100.00;59205.81;5024132;28;20184;-71
2024/03/03 02:09:36;;;;;;;38.57;23.90;;;;;;;-146.29;100.00;59205.81;5026549;28;20207;-71
2024/03/03 02:12:02;;;;;;;37.60;24.53;;;;;;;-146.29;100.00;59205.81;5027334;28;20194;-72
2024/03/03 02:14:28;;;;;;;41.20;26.20;;;;;;;-146.29;100.00;59205.81;5032976;28;20286;-71
2024/03/03 02:16:53;;;;;;;41.00;25.70;;;;;;;-146.29;100.00;59205.81;5038097;28;20449;-69
2024/03/03 02:19:19;;;;;;;42.37;25.50;;;;;;;-146.29;100.00;59205.81;5031621;28;20188;-71
2024/03/03 02:21:45;;;;;;;39.20;24.23;;;;;;;-146.29;100.00;59205.81;5015626;28;20290;-71
2024/03/03 02:24:10;;;;;;;43.63;25.70;;;;;;;-146.29;100.00;59205.81;5032004;28;20893;-70
2024/03/03 02:26:37;;;;;;;40.77;25.97;;;;;;;-146.29;100.00;59205.81;5046197;28;20258;-71
2024/03/03 02:29:03;;;;;;;39.10;24.37;;;;;;;-146.29;100.00;59205.81;5034010;28;20184;-71
2024/03/03 02:31:32;;;;;;;42.13;25.27;;;;;;;-146.29;100.00;59205.81;5030887;28;20433;-72
2024/03/03 02:33:57;;;;;;;39.30;24.83;;;;;;;-146.29;100.00;59205.81;5032900;28;20427;-71
2024/03/03 02:36:23;;;;;;;35.40;22.43;;;;;;;-146.29;100.00;59205.81;5031203;28;20998;-71
2024/03/03 02:38:50;;;;;;;39.27;22.83;;;;;;;-146.29;100.00;59205.81;5034639;28;20558;-71
2024/03/03 02:41:16;;;;;;;39.20;24.83;;;;;;;-146.29;100.00;59205.81;5029191;28;20196;-71
2024/03/03 02:43:41;;;;;;;72.53;23.53;;;;;;;-146.29;100.00;59205.81;5034904;28;20428;-71
2024/03/03 02:46:07;;;;;;;41.13;25.67;;;;;;;-146.29;100.00;59205.81;5048074;28;20216;-72
2024/03/03 02:48:32;;;;;;;41.90;24.20;;;;;;;-146.29;100.00;59205.81;5023231;28;20817;-69
2024/03/03 02:50:58;;;;;;;38.10;25.47;;;;;;;-146.29;100.00;59205.81;5033079;28;20196;-70
2024/03/03 02:53:23;;;;;;;37.57;25.43;;;;;;;-146.29;100.00;59205.81;5031873;28;20203;-70
2024/03/03 02:55:49;;;;;;;42.20;27.13;;;;;;;-146.29;100.00;59205.81;5041886;28;20179;-70
2024/03/03 02:58:14;;;;;;;42.47;25.40;;;;;;;-146.29;100.00;59205.81;5030543;28;20176;-72
2024/03/03 03:00:40;;;;;;;37.30;24.10;;;;;;;-146.29;100.00;59205.81;5029766;28;20640;-72
2024/03/03 03:03:05;;;;;;;38.90;23.50;;;;;;;-146.29;100.00;59205.81;5029734;28;20270;-74
2024/03/03 03:05:31;;;;;;;44.93;25.07;;;;;;;-146.29;100.00;59205.81;5030411;28;20179;-71
2024/03/03 03:07:57;;;;;;;49.90;25.47;;;;;;;-146.29;100.00;59205.81;5030951;28;20176;-71
2024/03/03 03:10:22;;;;;;;41.60;26.03;;;;;;;-146.29;100.00;59205.81;5038606;28;20191;-71
2024/03/03 03:12:48;;;;;;;40.93;25.80;;;;;;;-146.29;100.00;59205.81;5032457;28;20799;-70
2024/03/03 03:15:14;;;;;;;46.10;24.20;;;;;;;-146.29;100.00;59205.81;5034203;28;20236;-71
2024/03/03 03:17:39;;;;;;;43.20;25.63;;;;;;;-146.29;100.00;59205.81;5037432;28;20191;-70
2024/03/03 03:20:05;;;;;;;41.33;25.33;;;;;;;-146.29;100.00;59205.81;5030222;28;20277;-71
2024/03/03 03:22:31;;;;;;;41.53;25.43;;;;;;;-146.29;100.00;59205.81;5032204;28;20211;-71
2024/03/03 03:24:57;;;;;;;41.60;25.20;;;;;;;-146.29;100.00;59205.81;5028710;28;20492;-69
2024/03/03 03:27:22;;;;;;;40.50;24.30;;;;;;;-146.29;100.00;59205.81;5029003;28;20262;-71
2024/03/03 03:29:48;;;;;;;39.87;24.23;;;;;;;-146.29;100.00;59205.81;5030571;28;20234;-69
2024/03/03 03:32:13;;;;;;;40.40;26.60;;;;;;;-146.29;100.00;59205.81;5029656;28;20191;-71
2024/03/03 03:34:39;;;;;;;41.43;26.30;;;;;;;-146.29;100.00;59205.81;5034151;28;20648;-71
2024/03/03 03:37:05;;;;;;;42.87;26.40;;;;;;;-146.29;100.00;59205.81;5034572;28;20184;-70
2024/03/03 03:39:30;;;;;;;42.67;26.40;;;;;;;-146.29;100.00;59205.81;5035578;28;20186;-71
2024/03/03 03:41:56;;;;;;;37.27;25.23;;;;;;;-146.29;100.00;59205.81;5036874;28;20202;-71
2024/03/03 03:44:21;;;;;;;43.60;26.30;;;;;;;-146.29;100.00;59205.81;5039747;28;20618;-72
2024/03/03 03:46:47;;;;;;;48.20;27.07;;;;;;;-146.29;100.00;59205.81;5037114;28;20245;-70
2024/03/03 03:49:13;;;;;;;51.33;26.90;;;;;;;-146.29;100.00;59205.81;5030549;28;20258;-71
2024/03/03 03:51:39;;;;;;;47.43;27.63;;;;;;;-146.29;100.00;59205.81;5022103;28;20663;-70
2024/03/03 03:54:05;;;;;;;43.30;26.33;;;;;;;-146.29;100.00;59205.81;5037245;28;20413;-71
2024/03/03 03:56:31;;;;;;;41.70;26.57;;;;;;;-146.29;100.00;59205.81;5029608;28;20211;-71
2024/03/03 03:58:58;;;;;;;38.07;25.63;;;;;;;-146.29;100.00;59205.81;5030058;28;20318;-71
2024/03/03 04:01:23;;;;;;;42.80;25.80;;;;;;;-146.29;100.00;59205.81;5049367;28;20454;-70
2024/03/03 04:03:49;;;;;;;42.53;27.33;;;;;;;-146.29;100.00;59205.81;5028856;28;20930;-71
2024/03/03 04:06:14;;;;;;;40.10;25.40;;;;;;;-146.29;100.00;59205.81;5029904;28;20267;-70
2024/03/03 04:08:40;;;;;;;45.37;26.90;;;;;;;-146.29;100.00;59205.81;5028431;28;20585;-70
2024/03/03 04:11:07;;;;;;;46.97;27.63;;;;;;;-146.29;100.00;59205.81;5032187;28;20203;-72
2024/03/03 04:13:32;;;;;;;45.30;28.57;;;;;;;-146.29;100.00;59205.81;5029471;28;20484;-73
2024/03/03 04:15:58;;;;;;;42.63;27.13;;;;;;;-146.29;100.00;59205.81;5034141;28;20525;-70
2024/03/03 04:18:23;;;;;;;52.10;28.83;;;;;;;-146.29;100.00;59205.81;5029317;28;20267;-71
2024/03/03 04:20:49;;;;;;;43.47;26.57;;;;;;;-146.29;100.00;59205.81;5027950;28;20262;-71
2024/03/03 04:23:17;;;;;;;48.97;29.00;;;;;;;-146.29;100.00;59205.81;5031486;28;20183;-70
2024/03/03 04:25:42;;;;;;;45.53;26.70;;;;;;;-146.29;100.00;59205.81;5028434;28;20199;-72
2024/03/03 04:28:10;;;;;;;53.27;28.77;;;;;;;-146.29;100.00;59205.81;5029582;28;20526;-72
2024/03/03 04:30:38;;;;;;;43.80;27.23;;;;;;;-146.29;100.00;59205.81;5030047;28;20766;-70
2024/03/03 04:33:04;;;;;;;46.47;27.90;;;;;;;-146.29;100.00;59205.81;5034680;28;21009;-71
2024/03/03 04:35:29;;;;;;;48.17;27.60;;;;;;;-146.29;100.00;59205.81;5030424;28;20422;-69
2024/03/03 04:37:55;;;;;;;44.17;27.00;;;;;;;-146.29;100.00;59205.81;5033083;28;20237;-71
2024/03/03 04:40:20;;;;;;;45.87;26.17;;;;;;;-146.29;100.00;59205.81;5029983;28;20254;-73
2024/03/03 04:42:46;;;;;;;48.67;28.80;;;;;;;-146.29;100.00;59205.81;5042682;28;20210;-74
2024/03/03 04:45:12;;;;;;;40.70;25.43;;;;;;;-146.29;100.00;59205.81;5035338;28;20202;-71
2024/03/03 04:47:39;;;;;;;49.37;28.07;;;;;;;-146.29;100.00;59205.81;5029596;28;20184;-72
2024/03/03 04:50:06;;;;;;;39.47;24.80;;;;;;;-146.29;100.00;59205.81;5027671;28;20749;-72
2024/03/03 04:52:32;;;;;;;41.17;25.43;;;;;;;-146.29;100.00;59205.81;5035909;28;20858;-70
2024/03/03 04:54:57;;;;;;;44.60;27.00;;;;;;;-146.29;100.00;59205.81;5018200;28;20433;-70
2024/03/03 04:57:23;;;;;;;44.17;26.83;;;;;;;-146.29;100.00;59205.81;5030014;28;20175;-73
2024/03/03 04:59:48;;;;;;;40.43;25.03;;;;;;;-146.29;100.00;59205.81;5028279;28;20270;-70
2024/03/03 05:02:13;;;;;;;46.30;26.73;;;;;;;-146.29;100.00;59205.81;5027966;28;20313;-72
2024/03/03 05:04:39;;;;;;;48.43;27.10;;;;;;;-146.29;100.00;59205.81;5011089;28;20532;-70
2024/03/03 05:07:05;;;;;;;45.30;26.87;;;;;;;-146.29;100.00;59205.81;5028079;28;20195;-71
2024/03/03 05:09:30;;;;;;;46.07;25.37;;;;;;;-146.29;100.00;59205.81;5027238;28;20436;-69
2024/03/03 05:11:56;;;;;;;42.37;26.87;;;;;;;-146.29;100.00;59205.81;5026610;28;20321;-70
2024/03/03 05:14:21;;;;;;;46.70;26.93;;;;;;;-146.29;100.00;59205.81;5015802;28;20192;-70
2024/03/03 05:16:47;;;;;;;39.60;25.40;;;;;;;-146.29;100.00;59205.81;5037381;28;20214;-70
2024/03/03 05:19:12;;;;;;;45.80;26.73;;;;;;;-146.29;100.00;59205.81;5022299;28;20229;-70
2024/03/03 05:21:38;;;;;;;45.70;27.70;;;;;;;-146.29;100.00;59205.81;5027166;28;20636;-70
2024/03/03 05:24:04;;;;;;;47.00;27.30;;;;;;;-146.29;100.00;59205.81;4992414;28;20223;-70
2024/03/03 05:26:29;;;;;;;43.07;27.00;;;;;;;-146.29;100.00;59205.81;5026899;28;20450;-71
2024/03/03 05:28:55;;;;;;;45.93;26.57;;;;;;;-146.29;100.00;59205.81;5034577;28;20172;-73
2024/03/03 05:31:20;;;;;;;47.43;26.27;;;;;;;-146.29;100.00;59205.81;5024107;28;20672;-71
2024/03/03 05:33:46;;;;;;;42.37;25.40;;;;;;;-146.29;100.00;59205.81;5021635;28;20271;-72
2024/03/03 05:36:13;;;;;;;43.60;26.83;;;;;;;-146.29;100.00;59205.81;5010009;28;20184;-71
2024/03/03 05:38:41;;;;;;;39.60;25.50;;;;;;;-146.29;100.00;59205.81;5035347;28;20176;-73
2024/03/03 05:41:07;;;;;;;44.83;26.53;;;;;;;-146.29;100.00;59205.81;5027188;28;20454;-71
2024/03/03 05:43:32;;;;;;;41.37;24.60;;;;;;;-146.29;100.00;59205.81;5022850;28;20423;-70
2024/03/03 05:45:58;;;;;;;42.13;25.97;;;;;;;-146.29;100.00;59205.81;5027409;28;20262;-70
2024/03/03 05:48:23;;;;;;;44.37;26.97;;;;;;;-146.29;100.00;59205.81;5027657;28;20728;-72
2024/03/03 05:50:48;;;;;;;46.53;28.43;;;;;;;-146.29;100.00;59205.81;5027577;28;20365;-71
2024/03/03 05:53:14;;;;;;;46.10;26.70;;;;;;;-146.29;100.00;59205.81;5025200;28;20274;-69
2024/03/03 05:55:39;;;;;;;47.50;26.83;;;;;;;-146.29;100.00;59205.81;5020946;28;20191;-70
2024/03/03 05:58:05;;;;;;;46.03;27.37;;;;;;;-146.29;100.00;59205.81;5030911;28;20705;-70
2024/03/03 06:00:30;;;;;;;44.77;26.80;;;;;;;-146.29;100.00;59205.81;5028433;28;20287;-71
2024/03/03 06:02:57;;;;;;;44.47;26.40;;;;;;;-146.29;100.00;59205.81;5021829;28;20287;-69
2024/03/03 06:05:22;;;;;;;44.00;26.10;;;;;;;-146.29;100.00;59205.81;5029033;28;20263;-71
2024/03/03 06:07:47;;;;;;;44.83;27.40;;;;;;;-146.29;100.00;59205.81;5032734;28;20517;-69
2024/03/03 06:10:13;;;;;;;42.13;27.57;;;;;;;-146.29;100.00;59205.81;5051855;28;20287;-71
2024/03/03 06:12:38;;;;;;;45.10;26.13;;;;;;;-146.29;100.00;59205.81;5036317;28;20563;-71
2024/03/03 06:15:05;;;;;;;39.23;24.97;;;;;;;-146.29;100.00;59205.81;5039151;28;20187;-72
2024/03/03 06:17:31;;;;;;;44.93;27.10;;;;;;;-146.29;100.00;59205.81;5037831;28;20202;-72
2024/03/03 06:19:56;;;;;;;45.17;26.57;;;;;;;-146.29;100.00;59205.81;5035721;28;20446;-72
2024/03/03 06:22:22;;;;;;;43.40;27.80;;;;;;;-146.29;100.00;59205.81;5043610;28;20199;-72
2024/03/03 06:24:47;;;;;;;43.30;26.90;;;;;;;-146.29;100.00;59205.81;5028295;28;20195;-72
2024/03/03 06:27:13;;;;;;;45.77;27.00;;;;;;;-146.29;100.00;59205.81;5051564;28;20192;-72
2024/03/03 06:29:38;;;;;;;45.60;26.00;;;;;;;-146.29;100.00;59205.81;5053283;28;20183;-70
2024/03/03 06:32:04;;;;;;;46.80;23.77;;;;;;;-146.29;100.00;59205.81;5048383;28;20175;-71
2024/03/03 06:34:30;;;;;;;42.00;26.90;;;;;;;-146.29;100.00;59205.81;5046575;28;20190;-70
2024/03/03 06:36:55;;;;;;;45.60;27.83;;;;;;;-146.29;100.00;59205.81;5057673;28;20733;-72
2024/03/03 06:39:21;;;;;;;43.87;25.63;;;;;;;-146.29;100.00;59205.81;5052620;28;20260;-72
2024/03/03 06:41:46;;;;;;;43.50;26.10;;;;;;;-146.29;100.00;59205.81;5027423;28;20204;-71
2024/03/03 06:44:16;;;;;;;45.53;27.10;;;;;;;-146.29;100.00;59205.81;5028664;28;20270;-73
2024/03/03 06:46:44;;;;;;;40.00;25.83;;;;;;;-146.29;100.00;59205.81;5027848;28;20239;-72
2024/03/03 06:49:10;;;;;;;49.67;26.60;;;;;;;-146.29;100.00;59205.81;5029671;28;20426;-72
2024/03/03 06:51:36;;;;;;;40.50;24.33;;;;;;;-146.29;100.00;59205.81;5028079;28;20437;-72
2024/03/03 06:54:02;;;;;;;38.00;24.23;;;;;;;-146.29;100.00;59205.81;5028236;28;20984;-71
2024/03/03 06:56:27;;;;;;;40.80;25.00;;;;;;;-146.29;100.00;59205.81;5026495;28;20480;-72
2024/03/03 06:58:53;;;;;;;39.43;24.90;;;;;;;-146.29;100.00;59205.81;5029828;28;20183;-71
2024/03/03 07:01:18;;;;;;;36.53;24.07;;;;;;;-146.29;100.00;59205.81;5028267;28;20208;-73
2024/03/03 07:06:15;;;;;;;41.43;24.47;;;;;;;-146.29;100.00;59205.81;5038769;28;20552;-70
2024/03/03 07:08:41;;;;;;;35.67;23.80;;;;;;;-146.29;100.00;59205.81;5044935;28;20533;-71
2024/03/03 07:11:06;;;;;;;33.40;22.67;;;;;;;-146.29;100.00;59205.81;5029662;28;20237;-74
2024/03/03 07:13:32;;;;;;;35.00;23.47;;;;;;;-146.29;100.00;59205.81;5017651;28;20183;-71
2024/03/03 07:15:57;;;;;;;39.47;23.97;;;;;;;-146.29;100.00;59205.81;5033070;28;20187;-71
2024/03/03 07:18:23;;;;;;;35.43;23.83;;;;;;;-146.29;100.00;59205.81;5029246;28;20711;-71
2024/03/03 07:20:48;;;;;;;35.50;23.10;;;;;;;-146.29;100.00;59205.81;5029433;28;20894;-71
2024/03/03 07:23:14;;;;;;;35.93;23.17;;;;;;;-146.29;100.00;59205.81;5013472;28;20191;-71
2024/03/03 07:25:39;;;;;;;35.83;23.50;;;;;;;-146.29;100.00;59205.81;5028313;28;20223;-70
2024/03/03 07:28:06;;;;;;;39.00;23.10;;;;;;;-146.29;100.00;59205.81;5030343;28;20176;-71
2024/03/03 07:30:31;;;;;;;35.87;23.03;;;;;;;-146.29;100.00;59205.81;5028541;28;20195;-71
2024/03/03 07:32:56;;;;;;;35.07;22.70;;;;;;;-146.29;100.00;59205.81;5030189;28;20445;-72
2024/03/03 07:35:22;;;;;;;30.57;21.03;;;;;;;-146.29;100.00;59205.81;5030250;28;20180;-71
2024/03/03 07:37:47;;;;;;;34.70;23.30;;;;;;;-146.29;100.00;59205.81;5030645;28;20187;-71
2024/03/03 07:40:13;;;;;;;30.90;21.67;;;;;;;-146.29;100.00;59205.81;5031190;28;20226;-71
2024/03/03 07:42:39;;;;;;;32.60;21.87;;;;;;;-146.29;100.00;59205.81;5034103;28;20579;-71
2024/03/03 07:45:04;;;;;;;36.83;23.77;;;;;;;-146.29;100.00;59205.81;5010415;28;20711;-71
2024/03/03 07:47:30;;;;;;;29.83;21.27;;;;;;;-146.29;100.00;59205.81;5031179;28;20338;-71
2024/03/03 07:49:55;;;;;;;32.50;22.30;;;;;;;-146.29;100.00;59205.81;5029929;28;20245;-71
2024/03/03 07:52:21;;;;;;;33.57;22.20;;;;;;;-146.29;100.00;59205.81;5033839;28;20183;-70
2024/03/03 07:54:46;;;;;;;30.97;20.27;;;;;;;-146.29;100.00;59205.81;5032628;28;20215;-70
2024/03/03 07:57:12;;;;;;;29.20;20.23;;;;;;;-146.29;100.00;59205.81;5028825;28;20212;-70
2024/03/03 07:59:37;;;;;;;27.33;19.87;;;;;;;-146.29;100.00;59205.81;5030435;28;20539;-70
2024/03/03 08:02:03;;;;;;;29.63;20.33;;;;;;;-146.29;100.00;59205.81;5033748;28;20289;-71
2024/03/03 08:04:28;;;;;;;26.13;18.67;;;;;;;-146.29;100.00;59205.81;5015938;28;20176;-70
2024/03/03 08:06:54;;;;;;;29.60;19.97;;;;;;;-146.29;100.00;59205.81;5029116;28;20194;-70
2024/03/03 08:09:19;;;;;;;30.43;21.30;;;;;;;-146.29;100.00;59205.81;5029865;28;20183;-72
2024/03/03 08:11:45;;;;;;;26.70;20.00;;;;;;;-146.29;100.00;59205.81;5027912;28;20447;-71
2024/03/03 08:14:11;;;;;;;30.80;20.37;;;;;;;-146.29;100.00;59205.81;5029447;28;20632;-72
2024/03/03 08:16:36;;;;;;;29.40;21.23;;;;;;;-146.29;100.00;59205.81;5028888;28;20207;-72
2024/03/03 08:19:03;;;;;;;32.50;20.93;;;;;;;-146.29;100.00;59205.81;5021683;28;20266;-70
2024/03/03 08:21:29;;;;;;;34.07;19.30;;;;;;;-146.29;100.00;59205.81;5025338;28;20686;-71
2024/03/03 08:23:55;;;;;;;28.20;19.57;;;;;;;-146.29;100.00;59205.81;5030409;28;20485;-69
2024/03/03 08:26:20;;;;;;;28.03;19.57;;;;;;;-146.29;100.00;59205.81;5031168;28;20931;-70
2024/03/03 08:28:46;;;;;;;32.40;19.73;;;;;;;-146.29;100.00;59205.81;5027318;28;20196;-70
2024/03/03 08:31:13;;;;;;;28.57;19.63;;;;;;;-146.29;100.00;59205.81;5027553;28;20188;-70
2024/03/03 08:33:38;;;;;;;25.23;17.60;;;;;;;-146.29;100.00;59205.81;5031389;28;20188;-69
2024/03/03 08:36:04;;;;;;;29.00;20.47;;;;;;;-146.29;100.00;59205.81;5033189;28;20430;-70
2024/03/03 08:38:30;;;;;;;28.33;19.67;;;;;;;-146.29;100.00;59205.81;5028475;28;20266;-70
2024/03/03 08:40:55;;;;;;;28.93;20.20;;;;;;;-146.29;100.00;59205.81;5027653;28;20270;-70
2024/03/03 08:43:21;;;;;;;28.67;19.70;;;;;;;-146.29;100.00;59205.81;5020779;28;20180;-69
2024/03/03 08:45:46;;;;;;;27.60;19.50;;;;;;;-146.29;100.00;59205.81;5028797;28;20645;-71
2024/03/03 08:48:11;;;;;;;32.97;21.63;;;;;;;-146.29;100.00;59205.81;5031676;28;20206;-71
2024/03/03 08:50:37;;;;;;;27.63;19.13;;;;;;;-146.29;100.00;59205.81;5041125;28;20233;-71
2024/03/03 08:53:04;;;;;;;27.73;19.93;;;;;;;-146.29;100.00;59205.81;5031276;28;20499;-71
2024/03/03 08:55:29;;;;;;;35.60;24.30;;;;;;;-146.29;100.00;59205.81;5035478;28;20174;-71
2024/03/03 08:57:55;;;;;;;45.33;31.97;;;;;;;-146.29;100.00;59205.81;5027238;28;20433;-69
2024/03/03 09:00:20;;;;;;;52.67;34.60;;;;;;;-146.29;100.00;59205.81;5029973;28;20278;-70
2024/03/03 09:02:46;;;;;;;38.53;26.83;;;;;;;-146.29;100.00;59205.81;5018448;28;20238;-70
2024/03/03 09:05:11;;;;;;;31.77;20.47;;;;;;;-146.29;100.00;59205.81;5026498;28;20188;-71
2024/03/03 09:07:37;;;;;;;28.53;19.63;;;;;;;-146.29;100.00;59205.81;5027415;28;20671;-70
2024/03/03 09:10:04;;;;;;;29.73;20.80;;;;;;;-146.29;100.00;59205.81;5016016;28;20223;-72
2024/03/03 09:12:30;;;;;;;27.83;18.93;;;;;;;-146.29;100.00;59205.81;5027264;28;20764;-72
2024/03/03 09:14:55;;;;;;;26.30;18.50;;;;;;;-146.29;100.00;59205.81;5032319;28;20437;-70
2024/03/03 09:17:21;;;;;;;26.80;20.07;;;;;;;-146.29;100.00;59205.81;5025117;28;20951;-71
2024/03/03 09:19:46;;;;;;;25.60;18.10;;;;;;;-146.29;100.00;59205.81;5015438;28;20199;-71
2024/03/03 09:22:12;;;;;;;25.20;18.50;;;;;;;-146.29;100.00;59205.81;5025509;28;20275;-70
2024/03/03 09:24:43;;;;;;;27.80;18.80;;;;;;;-146.29;100.00;59205.81;5013101;28;20235;-70
2024/03/03 09:27:11;;;;;;;22.73;17.63;;;;;;;-146.29;100.00;59205.81;5030895;28;20451;-70
2024/03/03 09:29:36;;;;;;;24.70;17.57;;;;;;;-146.29;100.00;59205.81;5026796;28;20433;-71
2024/03/03 09:32:03;;;;;;;24.80;17.80;;;;;;;-146.29;100.00;59205.81;5029134;28;20970;-72
2024/03/03 09:34:29;;;;;;;30.60;18.60;;;;;;;-146.29;100.00;59205.81;5028228;28;20645;-71
2024/03/03 09:36:54;;;;;;;24.30;17.47;;;;;;;-146.29;100.00;59205.81;5027959;28;20483;-72
2024/03/03 09:39:20;;;;;;;23.70;17.00;;;;;;;-146.29;100.00;59205.81;5029867;28;20184;-72
2024/03/03 09:41:49;;;;;;;24.60;17.53;;;;;;;-146.29;100.00;59205.81;5026803;28;20226;-71
2024/03/03 09:44:17;;;;;;;25.33;17.60;;;;;;;-146.29;100.00;59205.81;5026926;28;20752;-73
2024/03/03 09:46:44;;;;;;;26.30;17.70;;;;;;;-146.29;100.00;59205.81;5019684;28;20975;-72
2024/03/03 09:49:20;;;;;;;26.63;17.77;;;;;;;-146.29;100.00;59205.81;5027235;28;20836;-73
2024/03/03 09:51:46;;;;;;;22.47;16.10;;;;;;;-146.29;100.00;59205.81;5032663;28;20470;-73
2024/03/03 09:54:16;;;;;;;22.33;16.77;;;;;;;-146.29;100.00;59205.81;5044585;28;20853;-71
2024/03/03 09:56:46;;;;;;;21.60;16.00;;;;;;;-146.29;100.00;59205.81;5027846;28;20461;-71
2024/03/03 09:59:15;;;;;;;22.33;16.57;;;;;;;-146.29;100.00;59205.81;5031973;28;20438;-72
2024/03/03 10:01:52;;;;;;;23.70;17.80;;;;;;;-146.29;100.00;59205.81;5010788;28;20470;-74
2024/03/03 10:04:18;;;;;;;45.90;33.50;;;;;;;-146.29;100.00;59205.81;5027682;28;21001;-74
2024/03/03 10:06:44;;;;;;;103.07;70.50;;;;;;;-146.29;100.00;59205.81;5023471;28;20470;-74
2024/03/03 10:09:12;;;;;;;73.70;53.10;;;;;;;-146.29;100.00;59205.81;5042789;28;20438;-73
2024/03/03 10:11:38;;;;;;;82.70;58.50;;;;;;;-146.29;100.00;59205.81;5030642;28;20512;-72
2024/03/03 10:14:04;;;;;;;55.10;35.80;;;;;;;-146.29;100.00;59205.81;5026116;28;20442;-74
2024/03/03 10:16:31;;;;;;;42.10;30.90;;;;;;;-146.29;100.00;59205.81;5037470;28;20441;-74
2024/03/03 10:19:01;;;;;;;41.87;26.17;;;;;;;-146.29;100.00;59205.81;5037942;28;20498;-72
2024/03/03 10:21:34;;;;;;;29.13;22.23;;;;;;;-146.29;100.00;59205.81;5025278;28;20470;-73
2024/03/03 10:24:27;;;;;;;51.30;38.80;;;;;;;-146.29;100.00;59205.81;5031259;28;20441;-74
2024/03/03 10:26:57;;;;;;;52.00;36.30;;;;;;;-146.29;100.00;59205.81;5024149;28;20529;-72
2024/03/03 10:29:26;;;;;;;71.90;47.93;;;;;;;-146.29;100.00;59205.81;5025732;28;20433;-71
2024/03/03 10:31:55;;;;;;;39.33;28.20;;;;;;;-146.29;100.00;59205.81;5030494;28;20548;-72
2024/03/03 10:34:21;;;;;;;35.43;25.37;;;;;;;-146.29;100.00;59205.81;5027274;28;20944;-71
2024/03/03 10:36:47;;;;;;;24.77;16.33;;;;;;;-146.29;100.00;59205.81;5029805;28;20422;-72
2024/03/03 10:39:13;;;;;;;17.23;14.20;;;;;;;-146.29;100.00;59205.81;5033576;28;20191;-74
2024/03/03 10:41:39;;;;;;;14.60;12.30;;;;;;;-146.29;100.00;59205.81;5017163;28;20468;-73
2024/03/03 10:44:05;;;;;;;16.40;12.33;;;;;;;-146.29;100.00;59205.81;5030839;28;20422;-75
2024/03/03 10:46:30;;;;;;;15.20;10.53;;;;;;;-146.29;100.00;59205.81;5034245;28;20552;-74
2024/03/03 10:48:56;;;;;;;14.67;11.20;;;;;;;-146.29;100.00;59205.81;5013652;28;20423;-73
2024/03/03 10:51:22;;;;;;;20.97;11.00;;;;;;;-146.29;100.00;59205.81;5037926;28;20245;-71